sensor_id;sensor_type;location;lat;lon;timestamp;pressure;altitude;pressure_sealevel;temperature;humidity
80712;BME280;70078;51.596;5.678;2023-09-08T00:00:01;101524.44;;;19.51;64.79
80712;BME280;70078;51.596;5.678;2023-09-08T00:02:27;101522.56;;;19.45;65.54
80712;BME280;70078;51.596;5.678;2023-09-08T00:04:56;101530.69;;;19.45;65.61
80712;BME280;70078;51.596;5.678;2023-09-08T00:07:21;101546.50;;;19.54;65.87
80712;BME280;70078;51.596;5.678;2023-09-08T00:09:47;101527.53;;;19.34;66.12
80712;BME280;70078;51.596;5.678;2023-09-08T00:12:12;101545.28;;;19.50;65.87
80712;BME280;70078;51.596;5.678;2023-09-08T00:14:42;101572.59;;;19.68;65.99
80712;BME280;70078;51.596;5.678;2023-09-08T00:17:13;101543.59;;;19.36;65.89
80712;BME280;70078;51.596;5.678;2023-09-08T00:19:38;101533.81;;;19.28;66.11
80712;BME280;70078;51.596;5.678;2023-09-08T00:22:04;101577.75;;;19.37;66.47
80712;BME280;70078;51.596;5.678;2023-09-08T00:24:31;101557.53;;;19.13;67.78
80712;BME280;70078;51.596;5.678;2023-09-08T00:26:56;101586.47;;;19.19;68.45
80712;BME280;70078;51.596;5.678;2023-09-08T00:29:22;101570.84;;;19.08;68.28
80712;BME280;70078;51.596;5.678;2023-09-08T00:31:47;101592.28;;;19.16;68.46
80712;BME280;70078;51.596;5.678;2023-09-08T00:34:12;101534.31;;;18.77;67.79
80712;BME280;70078;51.596;5.678;2023-09-08T00:36:38;101573.75;;;19.13;67.26
80712;BME280;70078;51.596;5.678;2023-09-08T00:39:03;101525.16;;;18.78;67.33
80712;BME280;70078;51.596;5.678;2023-09-08T00:41:28;101556.66;;;18.99;67.83
80712;BME280;70078;51.596;5.678;2023-09-08T00:43:54;101541.63;;;18.83;68.25
80712;BME280;70078;51.596;5.678;2023-09-08T00:46:19;101522.81;;;18.62;68.49
80712;BME280;70078;51.596;5.678;2023-09-08T00:48:45;101544.91;;;18.72;68.68
80712;BME280;70078;51.596;5.678;2023-09-08T00:51:10;101564.69;;;18.79;68.82
80712;BME280;70078;51.596;5.678;2023-09-08T00:53:36;101591.13;;;18.77;68.82
80712;BME280;70078;51.596;5.678;2023-09-08T00:56:02;101551.69;;;18.55;69.30
80712;BME280;70078;51.596;5.678;2023-09-08T00:58:29;101592.38;;;18.75;69.92
80712;BME280;70078;51.596;5.678;2023-09-08T01:00:54;101520.56;;;18.24;69.67
80712;BME280;70078;51.596;5.678;2023-09-08T01:03:23;101530.56;;;18.30;70.08
80712;BME280;70078;51.596;5.678;2023-09-08T01:05:48;101584.13;;;18.55;70.08
80712;BME280;70078;51.596;5.678;2023-09-08T01:08:15;101507.53;;;18.00;70.52
80712;BME280;70078;51.596;5.678;2023-09-08T01:10:41;101513.97;;;17.99;70.37
80712;BME280;70078;51.596;5.678;2023-09-08T01:13:07;101525.66;;;18.06;70.84
80712;BME280;70078;51.596;5.678;2023-09-08T01:15:33;101531.44;;;18.03;70.69
80712;BME280;70078;51.596;5.678;2023-09-08T01:17:58;101540.00;;;18.07;71.31
80712;BME280;70078;51.596;5.678;2023-09-08T01:21:02;101574.19;;;18.27;70.70
80712;BME280;70078;51.596;5.678;2023-09-08T01:26:10;101535.41;;;18.00;71.30
80712;BME280;70078;51.596;5.678;2023-09-08T01:28:40;101535.50;;;17.86;71.64
80712;BME280;70078;51.596;5.678;2023-09-08T01:31:07;101520.22;;;17.71;71.61
80712;BME280;70078;51.596;5.678;2023-09-08T01:33:39;101528.13;;;17.73;71.41
80712;BME280;70078;51.596;5.678;2023-09-08T01:36:06;101515.22;;;17.68;70.84
80712;BME280;70078;51.596;5.678;2023-09-08T01:38:31;101544.66;;;17.85;71.55
80712;BME280;70078;51.596;5.678;2023-09-08T01:40:56;101528.03;;;17.66;71.40
80712;BME280;70078;51.596;5.678;2023-09-08T01:43:21;101518.88;;;17.61;71.64
80712;BME280;70078;51.596;5.678;2023-09-08T01:45:47;101543.75;;;17.78;72.13
80712;BME280;70078;51.596;5.678;2023-09-08T01:48:12;101517.19;;;17.60;71.42
80712;BME280;70078;51.596;5.678;2023-09-08T01:50:37;101534.69;;;17.64;71.61
80712;BME280;70078;51.596;5.678;2023-09-08T01:53:03;101507.31;;;17.45;71.93
80712;BME280;70078;51.596;5.678;2023-09-08T01:55:29;101559.34;;;17.82;71.79
80712;BME280;70078;51.596;5.678;2023-09-08T01:57:54;101559.19;;;17.84;71.67
80712;BME280;70078;51.596;5.678;2023-09-08T02:00:19;101547.22;;;17.71;71.50
80712;BME280;70078;51.596;5.678;2023-09-08T02:02:47;101576.50;;;17.96;71.74
80712;BME280;70078;51.596;5.678;2023-09-08T02:05:12;101515.09;;;17.55;71.30
80712;BME280;70078;51.596;5.678;2023-09-08T02:07:38;101553.53;;;17.79;71.68
80712;BME280;70078;51.596;5.678;2023-09-08T02:10:04;101573.53;;;17.91;71.67
80712;BME280;70078;51.596;5.678;2023-09-08T02:12:29;101508.56;;;17.43;72.54
80712;BME280;70078;51.596;5.678;2023-09-08T02:14:54;101544.66;;;17.63;72.79
80712;BME280;70078;51.596;5.678;2023-09-08T02:17:20;101511.88;;;17.45;72.32
80712;BME280;70078;51.596;5.678;2023-09-08T02:19:45;101506.47;;;17.45;71.92
80712;BME280;70078;51.596;5.678;2023-09-08T02:22:11;101567.66;;;17.81;71.75
80712;BME280;70078;51.596;5.678;2023-09-08T02:24:36;101534.09;;;17.68;71.93
80712;BME280;70078;51.596;5.678;2023-09-08T02:27:02;101546.84;;;17.74;72.48
80712;BME280;70078;51.596;5.678;2023-09-08T02:29:27;101568.91;;;17.78;72.41
80712;BME280;70078;51.596;5.678;2023-09-08T02:31:53;101572.19;;;17.73;72.54
80712;BME280;70078;51.596;5.678;2023-09-08T02:34:18;101479.09;;;17.20;72.69
80712;BME280;70078;51.596;5.678;2023-09-08T02:36:44;101530.63;;;17.53;71.91
80712;BME280;70078;51.596;5.678;2023-09-08T02:39:12;101547.34;;;17.63;72.90
80712;BME280;70078;51.596;5.678;2023-09-08T02:41:38;101541.25;;;17.55;73.08
80712;BME280;70078;51.596;5.678;2023-09-08T02:44:04;101513.66;;;17.31;73.63
80712;BME280;70078;51.596;5.678;2023-09-08T02:46:30;101534.44;;;17.37;73.98
80712;BME280;70078;51.596;5.678;2023-09-08T02:48:55;101527.72;;;17.27;74.14
80712;BME280;70078;51.596;5.678;2023-09-08T02:51:21;101549.50;;;17.46;74.12
80712;BME280;70078;51.596;5.678;2023-09-08T02:53:46;101549.31;;;17.48;73.68
80712;BME280;70078;51.596;5.678;2023-09-08T02:56:11;101525.91;;;17.34;74.01
80712;BME280;70078;51.596;5.678;2023-09-08T02:58:37;101506.84;;;17.14;74.14
80712;BME280;70078;51.596;5.678;2023-09-08T03:01:10;101526.88;;;17.26;73.82
80712;BME280;70078;51.596;5.678;2023-09-08T03:03:36;101513.47;;;17.11;73.88
80712;BME280;70078;51.596;5.678;2023-09-08T03:06:02;101531.81;;;17.23;74.50
80712;BME280;70078;51.596;5.678;2023-09-08T03:08:28;101530.94;;;17.15;74.50
80712;BME280;70078;51.596;5.678;2023-09-08T03:10:58;101487.78;;;16.94;74.24
80712;BME280;70078;51.596;5.678;2023-09-08T03:13:26;101566.66;;;17.39;74.33
80712;BME280;70078;51.596;5.678;2023-09-08T03:15:55;101501.78;;;17.04;74.27
80712;BME280;70078;51.596;5.678;2023-09-08T03:18:22;101532.28;;;17.26;74.29
80712;BME280;70078;51.596;5.678;2023-09-08T03:20:51;101527.72;;;17.27;73.83
80712;BME280;70078;51.596;5.678;2023-09-08T03:23:16;101530.41;;;17.27;73.96
80712;BME280;70078;51.596;5.678;2023-09-08T03:25:42;101503.50;;;17.12;74.31
80712;BME280;70078;51.596;5.678;2023-09-08T03:28:08;101551.09;;;17.41;74.08
80712;BME280;70078;51.596;5.678;2023-09-08T03:30:33;101549.03;;;17.43;74.25
80712;BME280;70078;51.596;5.678;2023-09-08T03:32:58;101522.94;;;17.29;73.63
80712;BME280;70078;51.596;5.678;2023-09-08T03:35:24;101530.28;;;17.35;73.78
80712;BME280;70078;51.596;5.678;2023-09-08T03:37:49;101488.47;;;17.03;73.60
80712;BME280;70078;51.596;5.678;2023-09-08T03:40:16;101525.16;;;17.18;73.97
80712;BME280;70078;51.596;5.678;2023-09-08T03:42:42;101501.38;;;17.07;74.05
80712;BME280;70078;51.596;5.678;2023-09-08T03:45:08;101494.25;;;17.00;74.46
80712;BME280;70078;51.596;5.678;2023-09-08T03:47:34;101538.13;;;17.30;74.48
80712;BME280;70078;51.596;5.678;2023-09-08T03:50:00;101514.41;;;17.04;74.68
80712;BME280;70078;51.596;5.678;2023-09-08T03:52:25;101489.56;;;16.87;74.33
80712;BME280;70078;51.596;5.678;2023-09-08T03:54:51;101549.31;;;17.27;74.76
80712;BME280;70078;51.596;5.678;2023-09-08T03:57:16;101485.78;;;16.81;74.27
80712;BME280;70078;51.596;5.678;2023-09-08T03:59:42;101489.09;;;16.83;74.54
80712;BME280;70078;51.596;5.678;2023-09-08T04:02:07;101520.03;;;17.02;74.08
80712;BME280;70078;51.596;5.678;2023-09-08T04:04:32;101508.00;;;17.05;74.06
80712;BME280;70078;51.596;5.678;2023-09-08T04:06:58;101495.78;;;16.87;74.35
80712;BME280;70078;51.596;5.678;2023-09-08T04:09:23;101498.69;;;16.86;74.56
80712;BME280;70078;51.596;5.678;2023-09-08T04:11:48;101490.97;;;16.83;74.82
80712;BME280;70078;51.596;5.678;2023-09-08T04:14:13;101538.13;;;17.08;75.10
80712;BME280;70078;51.596;5.678;2023-09-08T04:16:39;101549.94;;;17.07;75.35
80712;BME280;70078;51.596;5.678;2023-09-08T04:19:04;101509.84;;;16.83;75.50
80712;BME280;70078;51.596;5.678;2023-09-08T04:21:29;101549.94;;;17.07;75.09
80712;BME280;70078;51.596;5.678;2023-09-08T04:23:55;101496.94;;;16.78;75.23
80712;BME280;70078;51.596;5.678;2023-09-08T04:26:20;101514.47;;;16.89;75.52
80712;BME280;70078;51.596;5.678;2023-09-08T04:28:46;101527.31;;;16.87;75.68
80712;BME280;70078;51.596;5.678;2023-09-08T04:31:11;101531.41;;;16.83;76.14
80712;BME280;70078;51.596;5.678;2023-09-08T04:33:36;101539.59;;;16.89;76.10
80712;BME280;70078;51.596;5.678;2023-09-08T04:36:02;101493.72;;;16.53;76.10
80712;BME280;70078;51.596;5.678;2023-09-08T04:38:27;101475.72;;;16.39;76.34
80712;BME280;70078;51.596;5.678;2023-09-08T04:40:53;101492.88;;;16.53;76.55
80712;BME280;70078;51.596;5.678;2023-09-08T04:43:18;101502.72;;;16.60;76.50
80712;BME280;70078;51.596;5.678;2023-09-08T04:45:43;101550.41;;;16.75;76.78
80712;BME280;70078;51.596;5.678;2023-09-08T04:48:08;101506.56;;;16.51;77.32
80712;BME280;70078;51.596;5.678;2023-09-08T04:50:34;101508.63;;;16.49;77.10
80712;BME280;70078;51.596;5.678;2023-09-08T04:52:59;101505.09;;;16.49;77.15
80712;BME280;70078;51.596;5.678;2023-09-08T04:55:25;101489.84;;;16.41;76.79
80712;BME280;70078;51.596;5.678;2023-09-08T04:57:50;101490.69;;;16.42;76.90
80712;BME280;70078;51.596;5.678;2023-09-08T05:00:16;101501.91;;;16.45;76.66
80712;BME280;70078;51.596;5.678;2023-09-08T05:02:41;101509.88;;;16.53;76.70
80712;BME280;70078;51.596;5.678;2023-09-08T05:05:07;101505.25;;;16.47;76.05
80712;BME280;70078;51.596;5.678;2023-09-08T05:07:33;101513.78;;;16.65;75.79
80712;BME280;70078;51.596;5.678;2023-09-08T05:09:58;101493.47;;;16.48;75.38
80712;BME280;70078;51.596;5.678;2023-09-08T05:12:23;101537.13;;;16.73;76.30
80712;BME280;70078;51.596;5.678;2023-09-08T05:14:49;101519.63;;;16.54;76.36
80712;BME280;70078;51.596;5.678;2023-09-08T05:17:14;101549.56;;;16.74;76.21
80712;BME280;70078;51.596;5.678;2023-09-08T05:19:40;101519.00;;;16.52;76.75
80712;BME280;70078;51.596;5.678;2023-09-08T05:22:06;101521.16;;;16.57;77.14
80712;BME280;70078;51.596;5.678;2023-09-08T05:24:34;101513.91;;;16.43;76.94
80712;BME280;70078;51.596;5.678;2023-09-08T05:26:59;101511.03;;;16.44;76.66
80712;BME280;70078;51.596;5.678;2023-09-08T05:29:25;101504.88;;;16.50;76.28
80712;BME280;70078;51.596;5.678;2023-09-08T05:31:50;101526.22;;;16.67;75.86
80712;BME280;70078;51.596;5.678;2023-09-08T05:34:16;101529.47;;;16.77;75.52
80712;BME280;70078;51.596;5.678;2023-09-08T05:36:42;101555.22;;;16.94;75.66
80712;BME280;70078;51.596;5.678;2023-09-08T05:39:08;101541.88;;;16.92;75.40
80712;BME280;70078;51.596;5.678;2023-09-08T05:41:33;101549.88;;;17.01;75.50
80712;BME280;70078;51.596;5.678;2023-09-08T05:43:59;101538.19;;;16.94;75.07
80712;BME280;70078;51.596;5.678;2023-09-08T05:46:25;101559.13;;;17.13;75.26
80712;BME280;70078;51.596;5.678;2023-09-08T05:48:50;101561.69;;;17.21;75.51
80712;BME280;70078;51.596;5.678;2023-09-08T05:51:16;101554.19;;;17.16;75.93
80712;BME280;70078;51.596;5.678;2023-09-08T05:53:41;101558.03;;;17.29;75.72
80712;BME280;70078;51.596;5.678;2023-09-08T05:56:07;101552.44;;;17.30;75.64
80712;BME280;70078;51.596;5.678;2023-09-08T05:58:33;101555.22;;;17.37;75.46
80712;BME280;70078;51.596;5.678;2023-09-08T06:01:02;101542.41;;;17.45;75.18
80712;BME280;70078;51.596;5.678;2023-09-08T06:03:28;101567.50;;;17.67;75.06
80712;BME280;70078;51.596;5.678;2023-09-08T06:05:53;101564.28;;;17.72;74.87
80712;BME280;70078;51.596;5.678;2023-09-08T06:08:18;101560.59;;;17.80;74.90
80712;BME280;70078;51.596;5.678;2023-09-08T06:10:44;101566.97;;;18.00;74.79
80712;BME280;70078;51.596;5.678;2023-09-08T06:13:09;101546.34;;;17.92;74.71
80712;BME280;70078;51.596;5.678;2023-09-08T06:15:35;101557.31;;;18.19;74.86
80712;BME280;70078;51.596;5.678;2023-09-08T06:18:18;101564.25;;;18.35;74.37
80712;BME280;70078;51.596;5.678;2023-09-08T06:20:47;101563.06;;;18.44;74.13
80712;BME280;70078;51.596;5.678;2023-09-08T06:23:13;101572.75;;;18.66;74.05
80712;BME280;70078;51.596;5.678;2023-09-08T06:25:39;101542.78;;;18.61;74.31
80712;BME280;70078;51.596;5.678;2023-09-08T06:28:04;101560.78;;;18.89;73.89
80712;BME280;70078;51.596;5.678;2023-09-08T06:30:30;101572.28;;;19.10;73.52
80712;BME280;70078;51.596;5.678;2023-09-08T06:32:55;101566.88;;;19.17;73.69
80712;BME280;70078;51.596;5.678;2023-09-08T06:35:21;101562.13;;;19.32;73.18
80712;BME280;70078;51.596;5.678;2023-09-08T06:37:46;101533.16;;;19.33;72.55
80712;BME280;70078;51.596;5.678;2023-09-08T06:40:11;101568.00;;;19.62;72.20
80712;BME280;70078;51.596;5.678;2023-09-08T06:42:37;101533.41;;;19.51;71.83
80712;BME280;70078;51.596;5.678;2023-09-08T06:45:02;101578.84;;;19.82;70.99
80712;BME280;70078;51.596;5.678;2023-09-08T06:47:27;101580.72;;;19.95;71.08
80712;BME280;70078;51.596;5.678;2023-09-08T06:49:53;101562.97;;;19.99;71.27
80712;BME280;70078;51.596;5.678;2023-09-08T06:52:18;101552.16;;;19.92;70.34
80712;BME280;70078;51.596;5.678;2023-09-08T06:54:43;101568.59;;;20.11;70.10
80712;BME280;70078;51.596;5.678;2023-09-08T06:57:13;101582.72;;;20.33;69.82
80712;BME280;70078;51.596;5.678;2023-09-08T06:59:39;101580.41;;;20.36;69.68
80712;BME280;70078;51.596;5.678;2023-09-08T07:02:04;101569.78;;;20.41;69.68
80712;BME280;70078;51.596;5.678;2023-09-08T07:04:30;101549.97;;;20.41;69.87
80712;BME280;70078;51.596;5.678;2023-09-08T07:06:55;101580.75;;;20.73;68.49
80712;BME280;70078;51.596;5.678;2023-09-08T07:09:21;101579.91;;;20.72;68.66
80712;BME280;70078;51.596;5.678;2023-09-08T07:11:46;101590.06;;;20.90;68.95
80712;BME280;70078;51.596;5.678;2023-09-08T07:14:12;101586.66;;;21.01;67.66
80712;BME280;70078;51.596;5.678;2023-09-08T07:16:37;101589.53;;;21.06;68.12
80712;BME280;70078;51.596;5.678;2023-09-08T07:19:02;101580.50;;;21.19;66.52
80712;BME280;70078;51.596;5.678;2023-09-08T07:21:28;101584.63;;;21.28;67.16
80712;BME280;70078;51.596;5.678;2023-09-08T07:23:53;101549.59;;;21.14;67.19
80712;BME280;70078;51.596;5.678;2023-09-08T07:26:21;101598.69;;;21.50;66.69
80712;BME280;70078;51.596;5.678;2023-09-08T07:28:47;101582.31;;;21.64;65.93
80712;BME280;70078;51.596;5.678;2023-09-08T07:31:13;101582.06;;;21.65;65.85
80712;BME280;70078;51.596;5.678;2023-09-08T07:33:39;101588.47;;;21.77;65.63
80712;BME280;70078;51.596;5.678;2023-09-08T07:36:05;101590.00;;;21.92;65.04
80712;BME280;70078;51.596;5.678;2023-09-08T07:38:31;101577.25;;;21.92;65.15
80712;BME280;70078;51.596;5.678;2023-09-08T07:40:56;101584.06;;;22.01;64.71
80712;BME280;70078;51.596;5.678;2023-09-08T07:43:21;101589.00;;;22.11;65.24
80712;BME280;70078;51.596;5.678;2023-09-08T07:45:46;101583.66;;;22.23;65.16
80712;BME280;70078;51.596;5.678;2023-09-08T07:48:12;101590.41;;;22.38;64.83
80712;BME280;70078;51.596;5.678;2023-09-08T07:50:37;101592.75;;;22.53;64.11
80712;BME280;70078;51.596;5.678;2023-09-08T07:53:02;101588.81;;;22.67;63.64
80712;BME280;70078;51.596;5.678;2023-09-08T07:55:28;101554.78;;;22.58;63.61
80712;BME280;70078;51.596;5.678;2023-09-08T07:57:54;101586.44;;;22.89;63.94
80712;BME280;70078;51.596;5.678;2023-09-08T08:00:20;101593.59;;;23.02;63.40
80712;BME280;70078;51.596;5.678;2023-09-08T08:02:50;101569.56;;;22.99;62.99
80712;BME280;70078;51.596;5.678;2023-09-08T08:05:16;101588.13;;;23.20;62.59
80712;BME280;70078;51.596;5.678;2023-09-08T08:07:42;101586.72;;;23.30;63.18
80712;BME280;70078;51.596;5.678;2023-09-08T08:10:09;101593.63;;;23.44;62.22
80712;BME280;70078;51.596;5.678;2023-09-08T08:12:35;101558.78;;;23.46;61.19
80712;BME280;70078;51.596;5.678;2023-09-08T08:15:00;101563.06;;;23.53;61.62
80712;BME280;70078;51.596;5.678;2023-09-08T08:17:26;101558.38;;;23.84;60.72
80712;BME280;70078;51.596;5.678;2023-09-08T08:19:53;101575.81;;;24.42;60.14
80712;BME280;70078;51.596;5.678;2023-09-08T08:22:18;101581.72;;;24.90;59.53
80712;BME280;70078;51.596;5.678;2023-09-08T08:24:44;101575.44;;;25.18;60.12
80712;BME280;70078;51.596;5.678;2023-09-08T08:27:09;101571.19;;;25.73;57.19
80712;BME280;70078;51.596;5.678;2023-09-08T08:29:34;101584.47;;;26.20;56.34
80712;BME280;70078;51.596;5.678;2023-09-08T08:32:00;101584.34;;;26.48;56.10
80712;BME280;70078;51.596;5.678;2023-09-08T08:34:25;101562.13;;;26.94;52.31
80712;BME280;70078;51.596;5.678;2023-09-08T08:36:50;101569.78;;;27.46;50.09
80712;BME280;70078;51.596;5.678;2023-09-08T08:39:16;101581.19;;;27.97;51.58
80712;BME280;70078;51.596;5.678;2023-09-08T08:41:41;101580.38;;;28.48;50.97
80712;BME280;70078;51.596;5.678;2023-09-08T08:44:09;101591.31;;;29.16;49.38
80712;BME280;70078;51.596;5.678;2023-09-08T08:46:38;101579.81;;;29.40;46.54
80712;BME280;70078;51.596;5.678;2023-09-08T08:49:05;101581.50;;;29.66;46.35
80712;BME280;70078;51.596;5.678;2023-09-08T08:51:32;101568.50;;;30.02;45.35
80712;BME280;70078;51.596;5.678;2023-09-08T08:53:57;101569.47;;;30.47;43.97
80712;BME280;70078;51.596;5.678;2023-09-08T08:56:23;101589.31;;;31.04;43.07
80712;BME280;70078;51.596;5.678;2023-09-08T08:58:49;101582.16;;;31.08;43.14
80712;BME280;70078;51.596;5.678;2023-09-08T09:01:18;101586.56;;;31.48;42.58
80712;BME280;70078;51.596;5.678;2023-09-08T09:03:46;101584.28;;;31.55;43.93
80712;BME280;70078;51.596;5.678;2023-09-08T09:06:14;101556.84;;;31.69;41.28
80712;BME280;70078;51.596;5.678;2023-09-08T09:08:42;101587.47;;;32.49;40.40
80712;BME280;70078;51.596;5.678;2023-09-08T09:11:08;101542.31;;;32.59;39.95
80712;BME280;70078;51.596;5.678;2023-09-08T09:13:34;101578.63;;;32.95;37.26
80712;BME280;70078;51.596;5.678;2023-09-08T09:16:00;101557.94;;;33.25;37.66
80712;BME280;70078;51.596;5.678;2023-09-08T09:18:26;101557.75;;;33.03;36.95
80712;BME280;70078;51.596;5.678;2023-09-08T09:20:55;101584.56;;;33.21;36.63
80712;BME280;70078;51.596;5.678;2023-09-08T09:23:31;101564.66;;;33.38;37.14
80712;BME280;70078;51.596;5.678;2023-09-08T09:25:57;101588.78;;;33.84;37.01
80712;BME280;70078;51.596;5.678;2023-09-08T09:28:23;101573.13;;;33.93;35.82
80712;BME280;70078;51.596;5.678;2023-09-08T09:30:50;101572.16;;;33.84;36.61
80712;BME280;70078;51.596;5.678;2023-09-08T09:33:17;101598.59;;;34.22;35.93
80712;BME280;70078;51.596;5.678;2023-09-08T09:35:48;101585.50;;;34.56;35.57
80712;BME280;70078;51.596;5.678;2023-09-08T09:38:15;101598.19;;;35.20;35.80
80712;BME280;70078;51.596;5.678;2023-09-08T09:40:40;101565.59;;;35.48;33.58
80712;BME280;70078;51.596;5.678;2023-09-08T09:43:07;101594.47;;;35.70;32.74
80712;BME280;70078;51.596;5.678;2023-09-08T09:45:34;101595.19;;;35.75;33.04
80712;BME280;70078;51.596;5.678;2023-09-08T09:47:59;101583.38;;;36.01;33.29
80712;BME280;70078;51.596;5.678;2023-09-08T09:50:33;101595.41;;;36.27;33.50
80712;BME280;70078;51.596;5.678;2023-09-08T09:53:00;101598.66;;;36.52;31.84
80712;BME280;70078;51.596;5.678;2023-09-08T09:55:27;101586.88;;;36.72;33.04
80712;BME280;70078;51.596;5.678;2023-09-08T09:57:58;101587.25;;;37.14;33.63
80712;BME280;70078;51.596;5.678;2023-09-08T10:00:26;101592.97;;;36.83;32.12
80712;BME280;70078;51.596;5.678;2023-09-08T10:02:54;101574.56;;;36.56;31.84
80712;BME280;70078;51.596;5.678;2023-09-08T10:05:20;101586.91;;;37.24;31.33
80712;BME280;70078;51.596;5.678;2023-09-08T10:07:49;101588.75;;;37.20;31.93
80712;BME280;70078;51.596;5.678;2023-09-08T10:10:16;101586.28;;;37.36;31.53
80712;BME280;70078;51.596;5.678;2023-09-08T10:12:46;101576.44;;;36.95;32.16
80712;BME280;70078;51.596;5.678;2023-09-08T10:15:12;101575.44;;;36.82;32.21
80712;BME280;70078;51.596;5.678;2023-09-08T10:17:44;101556.78;;;37.26;31.89
80712;BME280;70078;51.596;5.678;2023-09-08T10:20:10;101575.06;;;37.70;29.65
80712;BME280;70078;51.596;5.678;2023-09-08T10:22:41;101575.53;;;38.28;29.09
80712;BME280;70078;51.596;5.678;2023-09-08T10:25:12;101576.84;;;38.22;29.65
80712;BME280;70078;51.596;5.678;2023-09-08T10:27:38;101581.53;;;38.00;29.73
80712;BME280;70078;51.596;5.678;2023-09-08T10:30:05;101573.69;;;38.02;29.15
80712;BME280;70078;51.596;5.678;2023-09-08T10:32:32;101556.28;;;37.50;29.65
80712;BME280;70078;51.596;5.678;2023-09-08T10:34:59;101567.44;;;37.24;30.18
80712;BME280;70078;51.596;5.678;2023-09-08T10:37:26;101577.38;;;37.60;31.52
80712;BME280;70078;51.596;5.678;2023-09-08T10:39:55;101579.69;;;37.58;30.81
80712;BME280;70078;51.596;5.678;2023-09-08T10:42:25;101568.81;;;37.82;29.49
80712;BME280;70078;51.596;5.678;2023-09-08T10:44:56;101570.13;;;37.76;30.84
80712;BME280;70078;51.596;5.678;2023-09-08T10:49:50;101551.31;;;37.64;30.78
80712;BME280;70078;51.596;5.678;2023-09-08T10:52:21;101566.53;;;37.84;31.81
80712;BME280;70078;51.596;5.678;2023-09-08T10:54:54;101572.03;;;38.01;29.07
80712;BME280;70078;51.596;5.678;2023-09-08T10:57:22;101582.56;;;37.96;29.40
80712;BME280;70078;51.596;5.678;2023-09-08T10:59:57;101559.69;;;37.56;30.81
80712;BME280;70078;51.596;5.678;2023-09-08T11:02:41;101566.47;;;38.01;29.22
80712;BME280;70078;51.596;5.678;2023-09-08T11:05:12;101581.53;;;38.39;29.87
80712;BME280;70078;51.596;5.678;2023-09-08T11:07:40;101573.09;;;38.26;29.95
80712;BME280;70078;51.596;5.678;2023-09-08T11:10:07;101561.75;;;38.52;28.60
80712;BME280;70078;51.596;5.678;2023-09-08T11:12:33;101572.97;;;38.44;30.07
80712;BME280;70078;51.596;5.678;2023-09-08T11:14:59;101572.19;;;38.64;29.43
80712;BME280;70078;51.596;5.678;2023-09-08T11:17:32;101573.16;;;38.89;29.02
80712;BME280;70078;51.596;5.678;2023-09-08T11:19:59;101528.81;;;37.78;29.83
80712;BME280;70078;51.596;5.678;2023-09-08T11:22:25;101544.28;;;38.05;29.36
80712;BME280;70078;51.596;5.678;2023-09-08T11:24:52;101569.97;;;38.28;30.29
80712;BME280;70078;51.596;5.678;2023-09-08T11:27:18;101543.44;;;38.13;29.38
80712;BME280;70078;51.596;5.678;2023-09-08T11:29:44;101550.91;;;38.30;29.08
80712;BME280;70078;51.596;5.678;2023-09-08T11:32:10;101558.41;;;38.38;28.94
80712;BME280;70078;51.596;5.678;2023-09-08T11:34:36;101553.22;;;38.28;30.33
80712;BME280;70078;51.596;5.678;2023-09-08T11:37:12;101571.38;;;38.64;29.87
80712;BME280;70078;51.596;5.678;2023-09-08T11:39:42;101541.78;;;38.71;28.68
80712;BME280;70078;51.596;5.678;2023-09-08T11:42:13;101550.00;;;38.89;29.05
80712;BME280;70078;51.596;5.678;2023-09-08T11:44:39;101566.06;;;38.92;29.87
80712;BME280;70078;51.596;5.678;2023-09-08T11:47:09;101545.44;;;38.84;29.89
80712;BME280;70078;51.596;5.678;2023-09-08T11:49:38;101541.91;;;39.17;30.43
80712;BME280;70078;51.596;5.678;2023-09-08T11:52:05;101535.38;;;39.46;27.81
80712;BME280;70078;51.596;5.678;2023-09-08T11:54:35;101570.97;;;39.70;26.97
80712;BME280;70078;51.596;5.678;2023-09-08T11:57:02;101568.66;;;40.33;26.19
80712;BME280;70078;51.596;5.678;2023-09-08T11:59:30;101547.47;;;40.32;27.85
80712;BME280;70078;51.596;5.678;2023-09-08T12:01:56;101549.06;;;39.96;28.84
80712;BME280;70078;51.596;5.678;2023-09-08T12:04:22;101548.44;;;40.76;26.46
80712;BME280;70078;51.596;5.678;2023-09-08T12:06:53;101549.09;;;40.45;26.41
80712;BME280;70078;51.596;5.678;2023-09-08T12:09:21;101556.59;;;40.81;25.44
80712;BME280;70078;51.596;5.678;2023-09-08T12:11:47;101559.63;;;40.76;26.10
80712;BME280;70078;51.596;5.678;2023-09-08T12:14:14;101553.03;;;40.44;27.99
80712;BME280;70078;51.596;5.678;2023-09-08T12:16:44;101526.53;;;40.66;26.15
80712;BME280;70078;51.596;5.678;2023-09-08T12:19:28;101518.16;;;40.54;26.03
80712;BME280;70078;51.596;5.678;2023-09-08T12:21:58;101521.78;;;40.54;26.27
80712;BME280;70078;51.596;5.678;2023-09-08T12:24:51;101555.44;;;41.38;26.49
80712;BME280;70078;51.596;5.678;2023-09-08T12:27:24;101545.03;;;41.11;24.40
80712;BME280;70078;51.596;5.678;2023-09-08T12:32:20;101544.19;;;40.17;25.95
80712;BME280;70078;51.596;5.678;2023-09-08T12:34:45;101549.81;;;40.17;27.00
80712;BME280;70078;51.596;5.678;2023-09-08T12:37:11;101543.22;;;39.89;27.61
80712;BME280;70078;51.596;5.678;2023-09-08T12:39:38;101541.63;;;40.25;27.25
80712;BME280;70078;51.596;5.678;2023-09-08T12:42:04;101545.91;;;39.73;27.59
80712;BME280;70078;51.596;5.678;2023-09-08T12:44:29;101542.91;;;40.52;28.01
80712;BME280;70078;51.596;5.678;2023-09-08T12:46:54;101538.88;;;40.89;26.06
80712;BME280;70078;51.596;5.678;2023-09-08T12:49:20;101533.88;;;40.58;27.15
80712;BME280;70078;51.596;5.678;2023-09-08T12:51:45;101525.50;;;40.98;25.50
80712;BME280;70078;51.596;5.678;2023-09-08T12:54:10;101535.38;;;41.08;25.85